sensor_id;sensor_type;location;lat;lon;timestamp;temperature;humidity
50989;DHT22;37008;52.210;21.112;2024-03-08T00:00:09;-3.90;99.90
50989;DHT22;37008;52.210;21.112;2024-03-08T00:02:36;-3.90;99.90
50989;DHT22;37008;52.210;21.112;2024-03-08T00:05:06;-4.00;99.90
50989;DHT22;37008;52.210;21.112;2024-03-08T00:07:37;-4.00;99.90
50989;DHT22;37008;52.210;21.112;2024-03-08T00:10:04;-4.00;99.90
50989;DHT22;37008;52.210;21.112;2024-03-08T00:12:29;-4.10;99.90
50989;DHT22;37008;52.210;21.112;2024-03-08T00:14:56;-4.10;99.90
50989;DHT22;37008;52.210;21.112;2024-03-08T00:17:21;-4.10;99.90
50989;DHT22;37008;52.210;21.112;2024-03-08T00:19:54;-4.10;99.90
50989;DHT22;37008;52.210;21.112;2024-03-08T00:22:19;-4.10;99.90
50989;DHT22;37008;52.210;21.112;2024-03-08T00:24:45;-4.10;99.90
50989;DHT22;37008;52.210;21.112;2024-03-08T00:27:11;-4.10;99.90
50989;DHT22;37008;52.210;21.112;2024-03-08T00:29:37;-4.10;99.90
50989;DHT22;37008;52.210;21.112;2024-03-08T00:32:04;-4.20;99.90
50989;DHT22;37008;52.210;21.112;2024-03-08T00:34:30;-4.20;99.90
50989;DHT22;37008;52.210;21.112;2024-03-08T00:36:57;-4.20;99.90
50989;DHT22;37008;52.210;21.112;2024-03-08T00:39:23;-4.20;99.90
50989;DHT22;37008;52.210;21.112;2024-03-08T00:41:49;-4.30;99.90
50989;DHT22;37008;52.210;21.112;2024-03-08T00:44:14;-4.30;99.90
50989;DHT22;37008;52.210;21.112;2024-03-08T00:46:40;-4.30;99.90
50989;DHT22;37008;52.210;21.112;2024-03-08T00:49:05;-4.30;99.90
50989;DHT22;37008;52.210;21.112;2024-03-08T00:51:32;-4.30;99.90
50989;DHT22;37008;52.210;21.112;2024-03-08T00:53:58;-4.30;99.90
50989;DHT22;37008;52.210;21.112;2024-03-08T00:56:23;-4.30;99.90
50989;DHT22;37008;52.210;21.112;2024-03-08T00:58:50;-4.10;99.90
50989;DHT22;37008;52.210;21.112;2024-03-08T01:01:18;-4.30;99.90
50989;DHT22;37008;52.210;21.112;2024-03-08T01:03:44;-4.40;99.90
50989;DHT22;37008;52.210;21.112;2024-03-08T01:06:09;-4.30;99.90
50989;DHT22;37008;52.210;21.112;2024-03-08T01:08:37;-4.40;99.90
50989;DHT22;37008;52.210;21.112;2024-03-08T01:11:04;-4.40;99.90
50989;DHT22;37008;52.210;21.112;2024-03-08T01:13:30;-4.40;99.90
50989;DHT22;37008;52.210;21.112;2024-03-08T01:15:56;-4.50;99.90
50989;DHT22;37008;52.210;21.112;2024-03-08T01:18:22;-4.50;99.90
50989;DHT22;37008;52.210;21.112;2024-03-08T01:20:47;-4.50;99.90
50989;DHT22;37008;52.210;21.112;2024-03-08T01:23:13;-4.50;99.90
50989;DHT22;37008;52.210;21.112;2024-03-08T01:25:39;-4.50;99.90
50989;DHT22;37008;52.210;21.112;2024-03-08T01:28:05;-4.50;99.90
50989;DHT22;37008;52.210;21.112;2024-03-08T01:30:30;-4.60;99.90
50989;DHT22;37008;52.210;21.112;2024-03-08T01:32:58;-4.60;99.90
50989;DHT22;37008;52.210;21.112;2024-03-08T01:35:23;-4.60;99.90
50989;DHT22;37008;52.210;21.112;2024-03-08T01:37:49;-4.60;99.90
50989;DHT22;37008;52.210;21.112;2024-03-08T01:40:15;-4.60;99.90
50989;DHT22;37008;52.210;21.112;2024-03-08T01:42:42;-4.60;99.90
50989;DHT22;37008;52.210;21.112;2024-03-08T01:45:08;-4.60;99.90
50989;DHT22;37008;52.210;21.112;2024-03-08T01:47:34;-4.60;99.90
50989;DHT22;37008;52.210;21.112;2024-03-08T01:50:01;-4.60;99.90
50989;DHT22;37008;52.210;21.112;2024-03-08T01:52:29;-4.60;99.90
50989;DHT22;37008;52.210;21.112;2024-03-08T01:54:59;-4.60;99.90
50989;DHT22;37008;52.210;21.112;2024-03-08T01:57:27;-4.70;99.90
50989;DHT22;37008;52.210;21.112;2024-03-08T01:59:53;-4.70;99.90
50989;DHT22;37008;52.210;21.112;2024-03-08T02:02:22;-4.70;99.90
50989;DHT22;37008;52.210;21.112;2024-03-08T02:04:48;-4.70;99.90
50989;DHT22;37008;52.210;21.112;2024-03-08T02:07:14;-4.70;99.90
50989;DHT22;37008;52.210;21.112;2024-03-08T02:09:39;-4.80;99.90
50989;DHT22;37008;52.210;21.112;2024-03-08T02:12:05;-4.80;99.90
50989;DHT22;37008;52.210;21.112;2024-03-08T02:14:32;-4.80;99.90
50989;DHT22;37008;52.210;21.112;2024-03-08T02:17:01;-4.80;99.90
50989;DHT22;37008;52.210;21.112;2024-03-08T02:19:26;-4.80;99.90
50989;DHT22;37008;52.210;21.112;2024-03-08T02:21:52;-4.80;99.90
50989;DHT22;37008;52.210;21.112;2024-03-08T02:24:18;-4.90;99.90
50989;DHT22;37008;52.210;21.112;2024-03-08T02:26:44;-4.80;99.90
50989;DHT22;37008;52.210;21.112;2024-03-08T02:29:09;-4.80;99.90
50989;DHT22;37008;52.210;21.112;2024-03-08T02:31:35;-4.90;99.90
50989;DHT22;37008;52.210;21.112;2024-03-08T02:34:00;-4.80;99.90
50989;DHT22;37008;52.210;21.112;2024-03-08T02:36:26;-4.90;99.90
50989;DHT22;37008;52.210;21.112;2024-03-08T02:38:52;-4.90;99.90
50989;DHT22;37008;52.210;21.112;2024-03-08T02:41:18;-4.90;99.90
50989;DHT22;37008;52.210;21.112;2024-03-08T02:43:43;-4.90;99.90
50989;DHT22;37008;52.210;21.112;2024-03-08T02:46:10;-5.00;99.90
50989;DHT22;37008;52.210;21.112;2024-03-08T02:48:36;-5.00;99.90
50989;DHT22;37008;52.210;21.112;2024-03-08T02:51:02;-5.00;99.90
50989;DHT22;37008;52.210;21.112;2024-03-08T02:53:27;-5.00;99.90
50989;DHT22;37008;52.210;21.112;2024-03-08T02:55:53;-5.00;99.90
50989;DHT22;37008;52.210;21.112;2024-03-08T02:58:19;-5.00;99.90
50989;DHT22;37008;52.210;21.112;2024-03-08T03:00:44;-5.10;99.90
50989;DHT22;37008;52.210;21.112;2024-03-08T03:03:10;-5.10;99.90
50989;DHT22;37008;52.210;21.112;2024-03-08T03:05:36;-5.10;99.90
50989;DHT22;37008;52.210;21.112;2024-03-08T03:08:01;-5.10;99.90
50989;DHT22;37008;52.210;21.112;2024-03-08T03:10:29;-5.10;99.90
50989;DHT22;37008;52.210;21.112;2024-03-08T03:12:55;-5.10;99.90
50989;DHT22;37008;52.210;21.112;2024-03-08T03:15:21;-5.10;99.90
50989;DHT22;37008;52.210;21.112;2024-03-08T03:17:50;-5.10;99.90
50989;DHT22;37008;52.210;21.112;2024-03-08T03:20:16;-5.10;99.90
50989;DHT22;37008;52.210;21.112;2024-03-08T03:22:49;-5.10;99.90
50989;DHT22;37008;52.210;21.112;2024-03-08T03:25:18;-5.10;99.90
50989;DHT22;37008;52.210;21.112;2024-03-08T03:27:49;-5.10;99.90
50989;DHT22;37008;52.210;21.112;2024-03-08T03:30:15;-5.10;99.90
50989;DHT22;37008;52.210;21.112;2024-03-08T03:32:48;-5.10;99.90
50989;DHT22;37008;52.210;21.112;2024-03-08T03:35:14;-5.10;99.90
50989;DHT22;37008;52.210;21.112;2024-03-08T03:37:43;-5.10;99.90
50989;DHT22;37008;52.210;21.112;2024-03-08T03:40:11;-5.20;99.90
50989;DHT22;37008;52.210;21.112;2024-03-08T03:42:37;-5.20;99.90
50989;DHT22;37008;52.210;21.112;2024-03-08T03:45:05;-5.20;99.90
50989;DHT22;37008;52.210;21.112;2024-03-08T03:47:31;-5.20;99.90
50989;DHT22;37008;52.210;21.112;2024-03-08T03:49:56;-5.20;99.90
50989;DHT22;37008;52.210;21.112;2024-03-08T03:52:27;-5.20;99.90
50989;DHT22;37008;52.210;21.112;2024-03-08T03:54:52;-5.30;99.90
50989;DHT22;37008;52.210;21.112;2024-03-08T03:57:18;-5.30;99.90
50989;DHT22;37008;52.210;21.112;2024-03-08T03:59:44;-5.30;99.90
50989;DHT22;37008;52.210;21.112;2024-03-08T04:02:09;-5.30;99.90
50989;DHT22;37008;52.210;21.112;2024-03-08T04:04:35;-5.30;99.90
50989;DHT22;37008;52.210;21.112;2024-03-08T04:07:00;-5.30;99.90
50989;DHT22;37008;52.210;21.112;2024-03-08T04:09:27;-5.30;99.90
50989;DHT22;37008;52.210;21.112;2024-03-08T04:11:53;-5.30;99.90
50989;DHT22;37008;52.210;21.112;2024-03-08T04:14:20;-5.30;99.90
50989;DHT22;37008;52.210;21.112;2024-03-08T04:16:46;-5.30;99.90
50989;DHT22;37008;52.210;21.112;2024-03-08T04:19:13;-5.30;99.90
50989;DHT22;37008;52.210;21.112;2024-03-08T04:21:39;-5.30;99.90
50989;DHT22;37008;52.210;21.112;2024-03-08T04:24:05;-5.30;99.90
50989;DHT22;37008;52.210;21.112;2024-03-08T04:26:31;-5.40;99.90
50989;DHT22;37008;52.210;21.112;2024-03-08T04:28:56;-5.40;99.90
50989;DHT22;37008;52.210;21.112;2024-03-08T04:31:22;-5.40;99.90
50989;DHT22;37008;52.210;21.112;2024-03-08T04:33:48;-5.40;99.90
50989;DHT22;37008;52.210;21.112;2024-03-08T04:36:13;-5.40;99.90
50989;DHT22;37008;52.210;21.112;2024-03-08T04:38:40;-5.40;99.90
50989;DHT22;37008;52.210;21.112;2024-03-08T04:41:06;-5.40;99.90
50989;DHT22;37008;52.210;21.112;2024-03-08T04:43:33;-5.40;99.90
50989;DHT22;37008;52.210;21.112;2024-03-08T04:45:58;-5.40;99.90
50989;DHT22;37008;52.210;21.112;2024-03-08T04:48:24;-5.50;99.90
50989;DHT22;37008;52.210;21.112;2024-03-08T04:50:52;-5.50;99.90
50989;DHT22;37008;52.210;21.112;2024-03-08T04:53:19;-5.50;99.90
50989;DHT22;37008;52.210;21.112;2024-03-08T04:55:45;-5.50;99.90
50989;DHT22;37008;52.210;21.112;2024-03-08T04:58:10;-5.50;99.90
50989;DHT22;37008;52.210;21.112;2024-03-08T05:00:36;-5.50;99.90
50989;DHT22;37008;52.210;21.112;2024-03-08T05:03:01;-5.50;99.90
50989;DHT22;37008;52.210;21.112;2024-03-08T05:05:27;-5.50;99.90
50989;DHT22;37008;52.210;21.112;2024-03-08T05:07:54;-5.50;99.90
50989;DHT22;37008;52.210;21.112;2024-03-08T05:10:20;-5.50;99.90
50989;DHT22;37008;52.210;21.112;2024-03-08T05:12:45;-5.50;99.90
50989;DHT22;37008;52.210;21.112;2024-03-08T05:15:11;-5.50;99.90
50989;DHT22;37008;52.210;21.112;2024-03-08T05:17:36;-5.50;99.90
50989;DHT22;37008;52.210;21.112;2024-03-08T05:20:02;-5.40;99.90
50989;DHT22;37008;52.210;21.112;2024-03-08T05:22:29;-5.40;99.90
50989;DHT22;37008;52.210;21.112;2024-03-08T05:24:55;-5.40;99.90
50989;DHT22;37008;52.210;21.112;2024-03-08T05:27:20;-5.40;99.90
50989;DHT22;37008;52.210;21.112;2024-03-08T05:29:46;-5.40;99.90
50989;DHT22;37008;52.210;21.112;2024-03-08T05:32:12;-5.30;99.90
50989;DHT22;37008;52.210;21.112;2024-03-08T05:34:37;-5.30;99.90
50989;DHT22;37008;52.210;21.112;2024-03-08T05:37:03;-5.30;99.90
50989;DHT22;37008;52.210;21.112;2024-03-08T05:39:29;-5.20;99.90
50989;DHT22;37008;52.210;21.112;2024-03-08T05:41:55;-5.20;99.90
50989;DHT22;37008;52.210;21.112;2024-03-08T05:44:21;-5.20;99.90
50989;DHT22;37008;52.210;21.112;2024-03-08T05:46:47;-5.10;99.90
50989;DHT22;37008;52.210;21.112;2024-03-08T05:49:12;-5.10;99.90
50989;DHT22;37008;52.210;21.112;2024-03-08T05:51:39;-5.10;99.90
50989;DHT22;37008;52.210;21.112;2024-03-08T05:54:07;-5.00;99.90
50989;DHT22;37008;52.210;21.112;2024-03-08T05:56:35;-5.00;99.90
50989;DHT22;37008;52.210;21.112;2024-03-08T05:59:01;-4.90;99.90
50989;DHT22;37008;52.210;21.112;2024-03-08T06:01:27;-4.90;99.90
50989;DHT22;37008;52.210;21.112;2024-03-08T06:03:54;-4.80;99.90
50989;DHT22;37008;52.210;21.112;2024-03-08T06:06:26;-4.70;99.90
50989;DHT22;37008;52.210;21.112;2024-03-08T06:08:52;-4.70;99.90
50989;DHT22;37008;52.210;21.112;2024-03-08T06:11:19;-4.60;99.90
50989;DHT22;37008;52.210;21.112;2024-03-08T06:13:45;-4.50;99.90
50989;DHT22;37008;52.210;21.112;2024-03-08T06:16:11;-4.40;99.90
50989;DHT22;37008;52.210;21.112;2024-03-08T06:18:37;-4.30;99.90
50989;DHT22;37008;52.210;21.112;2024-03-08T06:21:03;-4.20;99.90
50989;DHT22;37008;52.210;21.112;2024-03-08T06:23:34;-4.10;99.90
50989;DHT22;37008;52.210;21.112;2024-03-08T06:25:59;-4.00;99.90
50989;DHT22;37008;52.210;21.112;2024-03-08T06:28:25;-3.90;99.90
50989;DHT22;37008;52.210;21.112;2024-03-08T06:30:51;-3.80;99.90
50989;DHT22;37008;52.210;21.112;2024-03-08T06:33:17;-3.70;99.90
50989;DHT22;37008;52.210;21.112;2024-03-08T06:35:43;-3.60;99.90
50989;DHT22;37008;52.210;21.112;2024-03-08T06:38:09;-3.40;99.90
50989;DHT22;37008;52.210;21.112;2024-03-08T06:40:35;-3.30;99.90
50989;DHT22;37008;52.210;21.112;2024-03-08T06:43:00;-3.20;99.90
50989;DHT22;37008;52.210;21.112;2024-03-08T06:45:26;-3.10;99.90
50989;DHT22;37008;52.210;21.112;2024-03-08T06:47:52;-3.00;99.90
50989;DHT22;37008;52.210;21.112;2024-03-08T06:50:17;-2.90;99.90
50989;DHT22;37008;52.210;21.112;2024-03-08T06:52:43;-2.70;99.90
50989;DHT22;37008;52.210;21.112;2024-03-08T06:55:10;-2.60;99.90
50989;DHT22;37008;52.210;21.112;2024-03-08T06:57:39;-2.50;99.90
50989;DHT22;37008;52.210;21.112;2024-03-08T07:00:09;-2.40;99.90
50989;DHT22;37008;52.210;21.112;2024-03-08T07:02:37;-2.20;99.90
50989;DHT22;37008;52.210;21.112;2024-03-08T07:05:05;-2.10;99.90
50989;DHT22;37008;52.210;21.112;2024-03-08T07:07:31;-2.00;99.90
50989;DHT22;37008;52.210;21.112;2024-03-08T07:09:59;-1.90;99.90
50989;DHT22;37008;52.210;21.112;2024-03-08T07:12:24;-1.70;99.90
50989;DHT22;37008;52.210;21.112;2024-03-08T07:14:51;-1.60;99.90
50989;DHT22;37008;52.210;21.112;2024-03-08T07:17:17;-1.50;99.90
50989;DHT22;37008;52.210;21.112;2024-03-08T07:19:42;-1.40;99.90
50989;DHT22;37008;52.210;21.112;2024-03-08T07:22:08;-1.30;99.90
50989;DHT22;37008;52.210;21.112;2024-03-08T07:24:35;-1.20;99.90
50989;DHT22;37008;52.210;21.112;2024-03-08T07:27:19;-1.00;99.90
50989;DHT22;37008;52.210;21.112;2024-03-08T07:29:44;-0.90;99.90
50989;DHT22;37008;52.210;21.112;2024-03-08T07:32:11;-0.80;99.90
50989;DHT22;37008;52.210;21.112;2024-03-08T07:34:43;-0.70;99.90
50989;DHT22;37008;52.210;21.112;2024-03-08T07:37:09;-0.50;99.90
50989;DHT22;37008;52.210;21.112;2024-03-08T07:39:38;-0.40;99.90
50989;DHT22;37008;52.210;21.112;2024-03-08T07:42:06;-0.30;99.90
50989;DHT22;37008;52.210;21.112;2024-03-08T07:44:32;-0.20;99.90
50989;DHT22;37008;52.210;21.112;2024-03-08T07:46:59;-0.10;99.90
50989;DHT22;37008;52.210;21.112;2024-03-08T07:49:24;0.00;99.90
50989;DHT22;37008;52.210;21.112;2024-03-08T07:51:50;0.10;99.90
50989;DHT22;37008;52.210;21.112;2024-03-08T07:54:17;0.10;99.90
50989;DHT22;37008;52.210;21.112;2024-03-08T07:56:43;0.40;99.90
50989;DHT22;37008;52.210;21.112;2024-03-08T07:59:08;0.40;99.90
50989;DHT22;37008;52.210;21.112;2024-03-08T08:01:34;0.50;99.90
50989;DHT22;37008;52.210;21.112;2024-03-08T08:04:00;0.70;99.90
50989;DHT22;37008;52.210;21.112;2024-03-08T08:06:28;0.80;99.90
50989;DHT22;37008;52.210;21.112;2024-03-08T08:08:57;0.90;99.90
50989;DHT22;37008;52.210;21.112;2024-03-08T08:11:23;1.00;99.90
50989;DHT22;37008;52.210;21.112;2024-03-08T08:13:51;1.10;99.90
50989;DHT22;37008;52.210;21.112;2024-03-08T08:16:16;1.20;99.90
50989;DHT22;37008;52.210;21.112;2024-03-08T08:18:42;1.40;99.90
50989;DHT22;37008;52.210;21.112;2024-03-08T08:21:07;1.50;99.90
50989;DHT22;37008;52.210;21.112;2024-03-08T08:23:33;1.60;99.90
50989;DHT22;37008;52.210;21.112;2024-03-08T08:25:58;1.70;99.90
50989;DHT22;37008;52.210;21.112;2024-03-08T08:28:24;1.80;99.90
50989;DHT22;37008;52.210;21.112;2024-03-08T08:30:50;1.90;99.90
50989;DHT22;37008;52.210;21.112;2024-03-08T08:33:16;2.00;99.90
50989;DHT22;37008;52.210;21.112;2024-03-08T08:35:41;2.10;99.90
50989;DHT22;37008;52.210;21.112;2024-03-08T08:38:08;2.20;99.90
50989;DHT22;37008;52.210;21.112;2024-03-08T08:40:34;2.20;99.90
50989;DHT22;37008;52.210;21.112;2024-03-08T08:43:01;2.30;99.90
50989;DHT22;37008;52.210;21.112;2024-03-08T08:45:30;2.50;99.90
50989;DHT22;37008;52.210;21.112;2024-03-08T08:47:56;2.60;99.90
50989;DHT22;37008;52.210;21.112;2024-03-08T08:50:21;2.70;99.90
50989;DHT22;37008;52.210;21.112;2024-03-08T08:52:50;2.80;99.90
50989;DHT22;37008;52.210;21.112;2024-03-08T08:55:16;2.90;99.90
50989;DHT22;37008;52.210;21.112;2024-03-08T08:57:46;3.10;99.90
50989;DHT22;37008;52.210;21.112;2024-03-08T09:00:13;3.10;99.90
50989;DHT22;37008;52.210;21.112;2024-03-08T09:02:41;3.20;99.90
50989;DHT22;37008;52.210;21.112;2024-03-08T09:05:07;3.30;99.90
50989;DHT22;37008;52.210;21.112;2024-03-08T09:07:37;3.40;99.90
50989;DHT22;37008;52.210;21.112;2024-03-08T09:10:03;3.40;99.90
50989;DHT22;37008;52.210;21.112;2024-03-08T09:12:29;3.50;99.90
50989;DHT22;37008;52.210;21.112;2024-03-08T09:14:55;3.50;99.90
50989;DHT22;37008;52.210;21.112;2024-03-08T09:17:20;3.50;99.90
50989;DHT22;37008;52.210;21.112;2024-03-08T09:19:49;3.50;99.90
50989;DHT22;37008;52.210;21.112;2024-03-08T09:22:15;3.60;99.90
50989;DHT22;37008;52.210;21.112;2024-03-08T09:24:41;3.70;97.00
50989;DHT22;37008;52.210;21.112;2024-03-08T09:27:08;3.70;96.40
50989;DHT22;37008;52.210;21.112;2024-03-08T09:29:35;3.80;95.30
50989;DHT22;37008;52.210;21.112;2024-03-08T09:32:01;3.90;94.20
50989;DHT22;37008;52.210;21.112;2024-03-08T09:34:26;3.90;93.00
50989;DHT22;37008;52.210;21.112;2024-03-08T09:36:52;4.00;92.10
50989;DHT22;37008;52.210;21.112;2024-03-08T09:39:18;4.10;91.60
50989;DHT22;37008;52.210;21.112;2024-03-08T09:41:46;4.20;91.00
50989;DHT22;37008;52.210;21.112;2024-03-08T09:44:15;4.20;89.70
50989;DHT22;37008;52.210;21.112;2024-03-08T09:46:42;4.30;87.90
50989;DHT22;37008;52.210;21.112;2024-03-08T09:49:08;4.40;85.30
50989;DHT22;37008;52.210;21.112;2024-03-08T09:51:34;4.40;83.80
50989;DHT22;37008;52.210;21.112;2024-03-08T09:54:03;4.50;82.70
50989;DHT22;37008;52.210;21.112;2024-03-08T09:56:32;4.60;81.00
50989;DHT22;37008;52.210;21.112;2024-03-08T09:58:59;4.60;79.60
50989;DHT22;37008;52.210;21.112;2024-03-08T10:01:31;4.70;78.90
50989;DHT22;37008;52.210;21.112;2024-03-08T10:03:57;4.70;78.60
50989;DHT22;37008;52.210;21.112;2024-03-08T10:06:23;4.70;77.50
50989;DHT22;37008;52.210;21.112;2024-03-08T10:08:49;4.70;77.30
50989;DHT22;37008;52.210;21.112;2024-03-08T10:11:17;4.80;77.00
50989;DHT22;37008;52.210;21.112;2024-03-08T10:13:44;4.90;76.60
50989;DHT22;37008;52.210;21.112;2024-03-08T10:16:12;4.90;76.10
50989;DHT22;37008;52.210;21.112;2024-03-08T10:18:37;5.00;75.80
50989;DHT22;37008;52.210;21.112;2024-03-08T10:21:05;5.10;75.10
50989;DHT22;37008;52.210;21.112;2024-03-08T10:23:33;5.20;74.30
50989;DHT22;37008;52.210;21.112;2024-03-08T10:26:12;5.30;73.70
50989;DHT22;37008;52.210;21.112;2024-03-08T10:28:45;5.40;73.10
50989;DHT22;37008;52.210;21.112;2024-03-08T10:31:13;5.50;72.20
50989;DHT22;37008;52.210;21.112;2024-03-08T10:33:40;5.60;71.50
50989;DHT22;37008;52.210;21.112;2024-03-08T10:36:09;5.60;70.70
50989;DHT22;37008;52.210;21.112;2024-03-08T10:38:36;5.60;70.00
50989;DHT22;37008;52.210;21.112;2024-03-08T10:41:03;5.60;69.30
50989;DHT22;37008;52.210;21.112;2024-03-08T10:43:36;5.70;69.30
50989;DHT22;37008;52.210;21.112;2024-03-08T10:46:17;5.70;68.90
50989;DHT22;37008;52.210;21.112;2024-03-08T10:48:44;5.80;68.60
50989;DHT22;37008;52.210;21.112;2024-03-08T10:51:12;5.90;68.10
50989;DHT22;37008;52.210;21.112;2024-03-08T10:53:38;5.90;67.30
50989;DHT22;37008;52.210;21.112;2024-03-08T10:56:07;6.00;67.00
50989;DHT22;37008;52.210;21.112;2024-03-08T10:58:34;6.00;66.40
50989;DHT22;37008;52.210;21.112;2024-03-08T11:01:00;6.00;65.70
50989;DHT22;37008;52.210;21.112;2024-03-08T11:06:18;6.10;65.20
50989;DHT22;37008;52.210;21.112;2024-03-08T11:08:48;6.20;64.80
50989;DHT22;37008;52.210;21.112;2024-03-08T11:11:26;6.20;63.90
50989;DHT22;37008;52.210;21.112;2024-03-08T11:14:00;6.30;63.40
50989;DHT22;37008;52.210;21.112;2024-03-08T11:21:37;6.40;61.90
50989;DHT22;37008;52.210;21.112;2024-03-08T11:24:12;6.50;61.90
50989;DHT22;37008;52.210;21.112;2024-03-08T11:26:42;6.50;62.70
50989;DHT22;37008;52.210;21.112;2024-03-08T11:32:16;6.70;61.00
50989;DHT22;37008;52.210;21.112;2024-03-08T11:34:46;6.70;60.10
50989;DHT22;37008;52.210;21.112;2024-03-08T11:37:20;6.70;59.90
50989;DHT22;37008;52.210;21.112;2024-03-08T11:39:53;6.80;59.60
50989;DHT22;37008;52.210;21.112;2024-03-08T11:42:24;6.80;59.50
50989;DHT22;37008;52.210;21.112;2024-03-08T11:44:52;6.80;59.00
50989;DHT22;37008;52.210;21.112;2024-03-08T11:47:18;6.90;58.70
50989;DHT22;37008;52.210;21.112;2024-03-08T11:49:44;6.90;58.10
50989;DHT22;37008;52.210;21.112;2024-03-08T11:52:14;6.90;57.70
50989;DHT22;37008;52.210;21.112;2024-03-08T11:54:52;7.00;57.30
50989;DHT22;37008;52.210;21.112;2024-03-08T11:57:25;7.10;56.50
50989;DHT22;37008;52.210;21.112;2024-03-08T11:59:52;7.10;56.30
50989;DHT22;37008;52.210;21.112;2024-03-08T12:02:18;7.10;56.20
50989;DHT22;37008;52.210;21.112;2024-03-08T12:04:45;7.10;56.10
50989;DHT22;37008;52.210;21.112;2024-03-08T12:07:11;7.20;56.20
50989;DHT22;37008;52.210;21.112;2024-03-08T12:09:40;7.20;55.90
50989;DHT22;37008;52.210;21.112;2024-03-08T12:12:07;7.20;55.70
50989;DHT22;37008;52.210;21.112;2024-03-08T12:14:34;7.20;55.50
50989;DHT22;37008;52.210;21.112;2024-03-08T12:17:00;7.20;55.40
50989;DHT22;37008;52.210;21.112;2024-03-08T12:19:30;7.20;55.20
50989;DHT22;37008;52.210;21.112;2024-03-08T12:21:55;7.20;55.20
50989;DHT22;37008;52.210;21.112;2024-03-08T12:24:21;7.20;55.10
50989;DHT22;37008;52.210;21.112;2024-03-08T12:26:47;7.30;55.10
50989;DHT22;37008;52.210;21.112;2024-03-08T12:31:52;7.40;54.60
50989;DHT22;37008;52.210;21.112;2024-03-08T12:34:18;7.40;54.40
50989;DHT22;37008;52.210;21.112;2024-03-08T12:36:45;7.40;54.30
50989;DHT22;37008;52.210;21.112;2024-03-08T12:39:15;7.40;54.10
50989;DHT22;37008;52.210;21.112;2024-03-08T12:41:41;7.40;54.10
50989;DHT22;37008;52.210;21.112;2024-03-08T12:44:07;7.40;54.00
50989;DHT22;37008;52.210;21.112;2024-03-08T12:46:37;7.50;53.90
50989;DHT22;37008;52.210;21.112;2024-03-08T12:49:08;7.50;53.60
50989;DHT22;37008;52.210;21.112;2024-03-08T12:51:38;7.60;53.70
50989;DHT22;37008;52.210;21.112;2024-03-08T12:54:07;7.70;53.10
50989;DHT22;37008;52.210;21.112;2024-03-08T12:56:34;7.70;53.00
50989;DHT22;37008;52.210;21.112;2024-03-08T12:59:00;7.70;52.80
50989;DHT22;37008;52.210;21.112;2024-03-08T13:01:27;7.70;52.40
50989;DHT22;37008;52.210;21.112;2024-03-08T13:03:53;7.70;52.30
50989;DHT22;37008;52.210;21.112;2024-03-08T13:06:20;7.80;52.20
50989;DHT22;37008;52.210;21.112;2024-03-08T13:08:50;7.80;52.20
50989;DHT22;37008;52.210;21.112;2024-03-08T13:11:16;7.80;52.00
50989;DHT22;37008;52.210;21.112;2024-03-08T13:13:43;7.80;51.60
50989;DHT22;37008;52.210;21.112;2024-03-08T13:16:10;7.80;51.10
50989;DHT22;37008;52.210;21.112;2024-03-08T13:18:37;7.80;50.90
50989;DHT22;37008;52.210;21.112;2024-03-08T13:21:05;7.80;50.90
50989;DHT22;37008;52.210;21.112;2024-03-08T13:23:31;7.80;50.70
50989;DHT22;37008;52.210;21.112;2024-03-08T13:25:57;7.80;50.30
50989;DHT22;37008;52.210;21.112;2024-03-08T13:28:23;7.80;50.10
50989;DHT22;37008;52.210;21.112;2024-03-08T13:30:53;7.80;50.20
50989;DHT22;37008;52.210;21.112;2024-03-08T13:33:19;7.90;50.20
50989;DHT22;37008;52.210;21.112;2024-03-08T13:35:46;7.90;50.40
50989;DHT22;37008;52.210;21.112;2024-03-08T13:38:12;8.00;50.20
50989;DHT22;37008;52.210;21.112;2024-03-08T13:40:39;8.00;50.00
50989;DHT22;37008;52.210;21.112;2024-03-08T13:43:06;8.00;49.70
50989;DHT22;37008;52.210;21.112;2024-03-08T13:45:34;8.00;49.60
50989;DHT22;37008;52.210;21.112;2024-03-08T13:48:03;8.00;49.60
50989;DHT22;37008;52.210;21.112;2024-03-08T13:50:30;8.00;49.60
50989;DHT22;37008;52.210;21.112;2024-03-08T13:52:56;8.10;49.50
50989;DHT22;37008;52.210;21.112;2024-03-08T13:55:22;8.00;49.10
50989;DHT22;37008;52.210;21.112;2024-03-08T13:57:48;8.00;48.90
50989;DHT22;37008;52.210;21.112;2024-03-08T14:00:14;8.00;49.30
50989;DHT22;37008;52.210;21.112;2024-03-08T14:02:41;8.00;49.30
50989;DHT22;37008;52.210;21.112;2024-03-08T14:05:07;8.00;49.40
50989;DHT22;37008;52.210;21.112;2024-03-08T14:07:35;8.00;49.40
50989;DHT22;37008;52.210;21.112;2024-03-08T14:10:01;8.00;49.30
50989;DHT22;37008;52.210;21.112;2024-03-08T14:12:26;7.90;49.30
50989;DHT22;37008;52.210;21.112;2024-03-08T14:14:55;7.90;49.30
50989;DHT22;37008;52.210;21.112;2024-03-08T14:17:25;7.90;48.70
50989;DHT22;37008;52.210;21.112;2024-03-08T14:19:52;7.90;48.90
50989;DHT22;37008;52.210;21.112;2024-03-08T14:22:18;8.00;49.40
50989;DHT22;37008;52.210;21.112;2024-03-08T14:24:44;8.00;49.10
50989;DHT22;37008;52.210;21.112;2024-03-08T14:27:10;8.00;49.00
50989;DHT22;37008;52.210;21.112;2024-03-08T14:29:37;8.00;49.00
50989;DHT22;37008;52.210;21.112;2024-03-08T14:32:04;8.00;48.80
50989;DHT22;37008;52.210;21.112;2024-03-08T14:34:34;8.00;48.80
50989;DHT22;37008;52.210;21.112;2024-03-08T14:37:00;8.00;48.70
50989;DHT22;37008;52.210;21.112;2024-03-08T14:39:26;8.00;48.80
50989;DHT22;37008;52.210;21.112;2024-03-08T14:41:54;8.00;48.90
50989;DHT22;37008;52.210;21.112;2024-03-08T14:44:21;8.00;48.90
50989;DHT22;37008;52.210;21.112;2024-03-08T14:46:47;8.00;48.90
50989;DHT22;37008;52.210;21.112;2024-03-08T14:49:13;8.00;49.00
50989;DHT22;37008;52.210;21.112;2024-03-08T14:51:39;8.00;49.00
50989;DHT22;37008;52.210;21.112;2024-03-08T14:54:05;8.00;49.00
50989;DHT22;37008;52.210;21.112;2024-03-08T14:56:32;8.00;49.10
50989;DHT22;37008;52.210;21.112;2024-03-08T14:58:58;8.00;49.10
50989;DHT22;37008;52.210;21.112;2024-03-08T15:01:25;8.00;49.20
50989;DHT22;37008;52.210;21.112;2024-03-08T15:03:57;8.00;49.20
50989;DHT22;37008;52.210;21.112;2024-03-08T15:06:28;8.00;48.90
50989;DHT22;37008;52.210;21.112;2024-03-08T15:08:56;8.00;48.80
50989;DHT22;37008;52.210;21.112;2024-03-08T15:11:23;8.00;49.00
50989;DHT22;37008;52.210;21.112;2024-03-08T15:13:51;8.00;48.90
50989;DHT22;37008;52.210;21.112;2024-03-08T15:16:19;8.00;48.90
50989;DHT22;37008;52.210;21.112;2024-03-08T15:18:46;7.90;48.90
50989;DHT22;37008;52.210;21.112;2024-03-08T15:21:16;7.90;49.00
50989;DHT22;37008;52.210;21.112;2024-03-08T15:23:45;8.00;49.00
50989;DHT22;37008;52.210;21.112;2024-03-08T15:26:17;8.50;48.70
50989;DHT22;37008;52.210;21.112;2024-03-08T15:28:43;9.20;48.30
50989;DHT22;37008;52.210;21.112;2024-03-08T15:31:10;10.00;47.40
50989;DHT22;37008;52.210;21.112;2024-03-08T15:33:38;10.50;46.80